Latest Weather Observations for Griffith

IDN60801

Issued at 10:03 am EDT Monday 20 February 2017 (issued every 30 minutes, with the page automatically refreshed every 10 minutes)

About weather observations | Map of weather stations | Latest weather observations for NSW | Other Formats
Station Details ID: 075041 Name: GRIFFITH AIRPORT AWS Lat: -34.25 Lon: 146.07 Height: 134.0 m
Data from the previous 72 hours. | See also: Recent months at Griffith
Date/Time
EDT
Temp
°C
App
Temp
°C
Dew
Point
°C
Rel
Hum
%
Delta-T
°C
Wind Press
QNH
hPa
Press
MSL
hPa
Rain since
9am
mm
Dir  Spd
km/h
Gust
km/h
Spd
kts
Gust
kts
20/10:00am 15.4 11.0 4.5 48 5.1 SSW 17 26 9 14 1016.3 1015.6 0.0
20/09:30am 14.3 9.7 5.7 56 4.1 SW 19 24 10 13 1016.3 1015.6 0.0
20/09:00am 13.6 9.5 6.2 61 3.5 SW 17 24 9 13 1016.2 1015.5 0.0
20/08:30am 12.4 8.7 6.5 67 2.8 SW 15 19 8 10 1016.0 1015.3 0.0
20/08:00am 10.4 8.4 7.1 80 1.6 NW 7 11 4 6 1015.9 1015.2 0.0
20/07:30am 8.2 6.1 6.0 86 1.0 W 6 7 3 4 1015.2 1014.6 0.0
20/07:00am 7.3 5.1 5.3 87 0.9 NW 6 7 3 4 1014.8 1014.2 0.0
20/06:30am 7.3 6.2 5.0 85 1.0 CALM 0 0 0 0 1014.3 1013.7 0.0
20/06:00am 8.3 7.3 5.4 82 1.3 CALM 0 6 0 3 1013.9 1013.2 0.0
20/05:30am 9.8 7.2 6.2 78 1.7 WSW 9 11 5 6 1013.6 1012.9 0.0
20/05:00am 10.6 8.1 6.6 76 1.9 SW 9 13 5 7 1013.1 1012.4 0.0
20/04:30am 10.5 8.6 7.7 83 1.4 SW 7 9 4 5 1012.9 1012.2 0.0
20/04:00am 10.4 9.5 7.6 83 1.4 SW 2 7 1 4 1012.8 1012.1 0.0
20/03:30am 11.6 9.8 8.1 79 1.7 S 7 9 4 5 1012.5 1011.8 0.0
20/03:00am 12.8 11.2 8.9 77 2.0 S 7 9 4 5 1012.6 1011.9 0.0
20/02:30am 13.7 11.5 9.2 74 2.3 SSE 11 17 6 9 1012.5 1011.8 0.0
20/02:00am 14.3 11.1 8.5 68 2.9 SSE 15 24 8 13 1012.5 1011.8 0.0
20/01:30am 15.4 10.7 7.7 60 3.9 SSW 22 30 12 16 1012.4 1011.7 0.0
20/01:00am 16.3 11.5 7.3 55 4.5 SW 22 30 12 16 1012.3 1011.6 0.0
20/12:30am 16.7 11.0 6.5 51 5.0 SW 26 32 14 17 1012.1 1011.4 0.0
20/12:00am 16.8 12.0 7.2 53 4.8 SW 22 28 12 15 1012.1 1011.4 0.0
 
Date/Time
EDT
Temp
°C
App
Temp
°C
Dew
Point
°C
Rel
Hum
%
Delta-T
°C
Wind Press
QNH
hPa
Press
MSL
hPa
Rain since
9am
mm
Dir  Spd
km/h
Gust
km/h
Spd
kts
Gust
kts
19/11:30pm 16.9 10.6 7.3 53 4.8 SW 30 39 16 21 1011.9 1011.2 0.0
19/11:00pm 17.6 12.2 6.5 48 5.5 SW 24 35 13 19 1011.8 1011.1 0.0
19/10:30pm 18.3 13.2 5.8 44 6.2 SW 22 30 12 16 1011.6 1010.9 0.0
19/10:00pm 18.6 13.7 5.1 41 6.6 WSW 20 30 11 16 1011.5 1010.8 0.0
19/09:30pm 18.6 14.3 3.3 36 7.2 W 15 19 8 10 1011.2 1010.5 0.0
19/09:00pm 18.4 14.8 3.1 36 7.2 W 11 17 6 9 1010.9 1010.2 0.0
19/08:30pm 18.3 13.9 2.6 35 7.3 W 15 17 8 9 1010.7 1010.0 0.0
19/08:00pm 18.9 14.0 2.3 33 7.7 W 17 24 9 13 1010.5 1009.8 0.0
19/07:30pm 20.0 14.6 2.4 31 8.2 W 20 32 11 17 1010.3 1009.6 0.0
19/07:00pm 21.5 14.2 2.7 29 8.9 WSW 30 39 16 21 1009.9 1009.2 0.0
19/06:30pm 21.9 14.5 2.1 27 9.3 WSW 30 41 16 22 1009.7 1009.0 0.0
19/06:00pm 22.5 15.6 2.6 27 9.5 W 28 43 15 23 1009.6 1008.9 0.0
19/05:52pm 22.1 15.1 1.7 26 9.5 W 28 52 15 28 1009.6 1008.9 0.0
19/05:30pm 22.9 17.5 2.4 26 9.8 W 20 32 11 17 1009.6 1008.9 0.0
19/05:00pm 21.1 15.2 1.4 27 9.1 W 22 33 12 18 1009.7 1009.0 0.0
19/04:30pm 22.3 16.6 0.8 24 9.9 W 20 41 11 22 1009.9 1009.2 0.0
19/04:00pm 23.1 16.3 0.9 23 10.3 W 26 37 14 20 1010.2 1009.5 0.0
19/03:30pm 22.1 15.6 0.6 24 9.8 W 24 43 13 23 1010.3 1009.6 0.0
19/03:00pm 21.7 15.7 0.8 25 9.6 SW 22 35 12 19 1010.6 1009.9 0.0
19/02:30pm 22.1 16.5 1.2 25 9.7 W 20 33 11 18 1010.9 1010.2 0.0
19/02:00pm 21.1 15.5 0.9 26 9.2 WSW 20 33 11 18 1011.4 1010.7 0.0
19/01:30pm 21.0 15.5 1.8 28 8.9 WSW 20 33 11 18 1011.7 1011.0 0.0
19/01:00pm 20.5 16.0 1.9 29 8.6 W 15 26 8 14 1012.1 1011.4 0.0
19/12:30pm 19.1 13.2 2.0 32 7.9 WSW 22 35 12 19 1012.7 1012.0 0.0
19/12:00pm 19.1 13.8 2.9 34 7.6 WSW 20 35 11 19 1013.1 1012.4 0.0
19/11:30am 19.2 14.4 2.6 33 7.7 SW 17 32 9 17 1013.3 1012.6 0.0
19/11:00am 17.8 12.6 2.2 35 7.1 SW 19 30 10 16 1013.3 1012.6 0.0
19/10:30am 18.0 13.7 3.1 37 6.9 WSW 15 26 8 14 1013.4 1012.7 0.0
19/10:00am 17.0 14.4 4.0 42 6.1 W 7 15 4 8 1013.1 1012.4 0.0
19/09:30am 15.7 13.2 3.5 44 5.6 SW 6 9 3 5 1012.9 1012.2 0.0
19/09:00am 14.6 11.9 3.7 48 5.0 SW 7 13 4 7 1013.0 1012.3 0.0
19/08:30am 13.3 9.4 3.4 51 4.5 WSW 13 15 7 8 1012.9 1012.2 0.0
19/08:00am 11.8 9.2 3.3 56 3.8 WNW 6 9 3 5 1012.6 1011.9 0.0
19/07:30am 10.6 7.5 3.4 61 3.2 WNW 9 13 5 7 1012.4 1011.7 0.0
19/07:00am 8.8 5.2 2.8 66 2.6 NW 11 13 6 7 1012.0 1011.3 0.0
19/06:30am 12.0 8.4 2.7 53 4.1 SW 11 17 6 9 1011.5 1010.8 0.0
19/06:00am 12.0 8.0 2.7 53 4.1 SSW 13 17 7 9 1011.2 1010.5 0.0
19/05:30am 12.2 7.4 2.6 52 4.2 SSW 17 20 9 11 1011.1 1010.4 0.0
19/05:00am 12.4 7.6 2.6 51 4.3 SW 17 22 9 12 1011.0 1010.3 0.0
19/04:30am 11.7 8.1 2.7 54 3.9 SW 11 19 6 10 1011.0 1010.3 0.0
19/04:00am 10.5 7.5 1.9 55 3.7 WSW 7 17 4 9 1011.1 1010.4 0.0
19/03:30am 12.2 8.3 0.9 46 4.8 WSW 11 15 6 8 1011.3 1010.6 0.0
19/03:00am 13.2 8.9 0.9 43 5.3 SW 13 17 7 9 1011.3 1010.6 0.0
19/02:30am 13.7 9.2 -0.3 38 5.8 SW 13 17 7 9 1011.3 1010.6 0.0
19/02:00am 15.5 9.7 -0.3 34 6.7 SW 20 28 11 15 1011.4 1010.7 0.0
19/01:30am 12.9 9.3 0.3 42 5.3 SW 9 15 5 8 1011.6 1010.9 0.0
19/01:00am 13.5 9.8 -0.2 39 5.7 SW 9 13 5 7 1011.8 1011.1 0.0
19/12:30am 14.7 10.5 -1.0 34 6.5 SW 11 17 6 9 1011.6 1010.9 0.0
19/12:00am 15.8 11.3 -0.4 33 6.9 SW 13 17 7 9 1011.5 1010.8 0.0
 
Date/Time
EDT
Temp
°C
App
Temp
°C
Dew
Point
°C
Rel
Hum
%
Delta-T
°C
Wind Press
QNH
hPa
Press
MSL
hPa
Rain since
9am
mm
Dir  Spd
km/h
Gust
km/h
Spd
kts
Gust
kts
18/11:30pm 15.5 11.3 -0.7 33 6.8 SW 11 13 6 7 1011.5 1010.8 0.0
18/11:00pm 17.1 12.2 -0.6 30 7.6 SW 15 20 8 11 1011.3 1010.6 0.0
18/10:30pm 17.7 12.5 -0.1 30 7.7 SW 17 20 9 11 1011.3 1010.6 0.0
18/10:00pm 18.4 12.7 -0.4 28 8.2 SW 19 28 10 15 1011.2 1010.5 0.0
18/09:30pm 19.3 13.7 -0.1 27 8.6 SW 19 28 10 15 1010.8 1010.1 0.0
18/09:00pm 19.9 14.2 0.4 27 8.7 SW 20 26 11 14 1010.6 1009.9 0.0
18/08:30pm 20.1 15.0 0.5 27 8.8 SW 17 24 9 13 1010.2 1009.5 0.0
18/08:00pm 20.3 15.7 1.7 29 8.6 WSW 15 19 8 10 1010.1 1009.4 0.0
18/07:30pm 20.8 15.8 1.1 27 9.0 SW 17 26 9 14 1009.9 1009.2 0.0
18/07:00pm 21.3 14.9 1.0 26 9.3 SW 24 32 13 17 1009.9 1009.2 0.0
18/06:30pm 22.4 15.2 0.9 24 9.9 SW 28 39 15 21 1009.7 1009.0 0.0
18/06:00pm 23.1 14.7 1.5 24 10.2 SW 35 46 19 25 1009.5 1008.8 0.0
18/05:30pm 24.3 16.5 1.9 23 10.7 SW 32 41 17 22 1009.2 1008.5 0.0
18/05:12pm 24.9 18.0 2.4 23 10.9 WSW 28 46 15 25 1008.9 1008.2 0.0
18/05:00pm 25.0 18.1 2.4 23 11.0 SW 28 41 15 22 1009.0 1008.3 0.0
18/04:30pm 24.7 17.7 2.2 23 10.8 WSW 28 43 15 23 1009.1 1008.4 0.0
18/04:00pm 24.6 16.8 2.7 24 10.6 WSW 33 46 18 25 1009.2 1008.5 0.0
18/03:30pm 24.4 17.1 2.5 24 10.6 SW 30 44 16 24 1009.5 1008.8 0.0
18/03:00pm 24.3 16.7 3.0 25 10.4 WSW 32 41 17 22 1009.7 1009.0 0.0
18/02:30pm 24.4 17.2 3.1 25 10.4 WSW 30 56 16 30 1009.9 1009.2 0.0
18/02:26pm 23.9 16.4 3.2 26 10.1 WSW 32 50 17 27 1010.0 1009.3 0.0
18/02:00pm 24.0 16.6 3.9 27 9.9 WSW 32 44 17 24 1010.2 1009.5 0.0
18/01:30pm 23.6 16.2 4.0 28 9.7 WSW 32 41 17 22 1010.2 1009.5 0.0
18/01:04pm 23.9 16.7 4.8 29 9.6 WSW 32 50 17 27 1010.5 1009.8 0.0
18/01:00pm 23.5 16.2 5.4 31 9.2 WSW 33 48 18 26 1010.5 1009.8 0.0
18/12:32pm 24.1 17.5 5.9 31 9.3 WSW 30 48 16 26 1010.3 1009.6 0.0
18/12:30pm 23.7 17.4 5.6 31 9.2 WSW 28 39 15 21 1010.3 1009.6 0.0
18/12:00pm 22.5 16.5 5.4 33 8.6 SW 26 35 14 19 1010.5 1009.8 0.0
18/11:53am 23.2 16.9 5.6 32 8.9 SW 28 46 15 25 1010.6 1009.9 0.0
18/11:30am 22.6 16.2 6.8 36 8.2 SW 30 39 16 21 1010.8 1010.1 0.0
18/11:00am 21.1 15.6 7.7 42 7.0 SW 26 35 14 19 1010.9 1010.2 0.0
18/10:30am 21.3 16.6 7.9 42 7.0 WSW 22 32 12 17 1011.0 1010.3 0.0
18/10:00am 21.0 16.8 9.6 48 6.2 SW 22 30 12 16 1011.2 1010.5 0.0
18/09:30am 20.2 16.6 10.0 52 5.5 SW 19 24 10 13 1011.4 1010.7 0.0
18/09:00am 19.0 15.5 10.3 57 4.7 WSW 19 24 10 13 1011.4 1010.7 0.0
18/08:30am 18.5 15.3 10.1 58 4.5 SW 17 22 9 12 1011.1 1010.4 0.0
18/08:00am 17.5 16.1 9.7 60 4.1 WNW 7 11 4 6 1010.6 1009.9 0.0
18/07:30am 16.4 15.3 9.8 65 3.5 NW 6 7 3 4 1010.3 1009.6 0.0
18/07:00am 15.0 13.3 8.3 64 3.4 NNW 7 9 4 5 1010.2 1009.5 0.0
18/06:30am 17.3 14.7 9.5 60 4.1 SW 13 19 7 10 1009.8 1009.1 0.0
18/06:00am 17.7 15.0 9.1 57 4.5 SSW 13 20 7 11 1009.6 1008.9 0.0
18/05:30am 18.0 15.3 8.8 55 4.8 SW 13 19 7 10 1009.3 1008.6 0.0
18/05:00am 18.1 15.0 8.7 54 4.9 SW 15 22 8 12 1009.0 1008.3 0.0
18/04:30am 18.6 14.7 8.6 52 5.2 SW 19 28 10 15 1008.7 1008.0 0.0
18/04:00am 19.1 15.4 8.1 49 5.7 SW 17 24 9 13 1008.7 1008.0 0.0
18/03:30am 19.6 16.2 7.7 46 6.1 SSW 15 20 8 11 1008.6 1007.9 0.0
18/03:00am 19.9 16.5 7.6 45 6.4 SSW 15 20 8 11 1008.6 1007.9 0.0
18/02:30am 20.3 16.8 7.3 43 6.7 SSW 15 22 8 12 1008.8 1008.1 0.0
18/02:00am 20.7 16.8 7.0 41 7.0 SSW 17 22 9 12 1008.9 1008.2 0.0
18/01:30am 21.4 17.4 6.5 38 7.6 SSW 17 24 9 13 1008.9 1008.2 0.0
18/01:00am 21.7 18.3 6.0 36 8.0 SSW 13 20 7 11 1009.1 1008.4 0.0
18/12:30am 22.2 18.4 6.0 35 8.2 SSW 15 20 8 11 1009.0 1008.3 0.0
18/12:00am 23.1 18.4 6.0 33 8.8 SSW 20 28 11 15 1009.0 1008.3 0.0
 
Date/Time
EDT
Temp
°C
App
Temp
°C
Dew
Point
°C
Rel
Hum
%
Delta-T
°C
Wind Press
QNH
hPa
Press
MSL
hPa
Rain since
9am
mm
Dir  Spd
km/h
Gust
km/h
Spd
kts
Gust
kts
17/11:30pm 23.7 18.5 5.6 31 9.2 SSW 22 28 12 15 1008.9 1008.2 0.0
17/11:00pm 24.5 19.6 5.3 29 9.8 SW 20 26 11 14 1009.1 1008.4 0.0
17/10:30pm 25.1 19.9 5.3 28 10.1 SW 22 30 12 16 1009.1 1008.4 0.0
17/10:00pm 25.3 20.6 5.0 27 10.3 SW 19 22 10 12 1008.9 1008.2 0.0
17/09:30pm 25.9 21.4 4.4 25 10.9 SW 17 22 9 12 1008.5 1007.8 0.0
17/09:00pm 26.4 21.4 3.6 23 11.4 SW 19 22 10 12 1008.2 1007.5 0.0
17/08:30pm 27.4 21.9 3.8 22 11.9 WSW 22 28 12 15 1007.6 1006.9 0.0
17/08:00pm 28.6 22.0 4.2 21 12.5 SW 28 35 15 19 1007.2 1006.5 0.0
17/07:30pm 29.6 23.4 6.3 23 12.4 SW 28 33 15 18 1006.9 1006.2 0.0
17/07:00pm 31.2 25.8 9.4 26 12.4 SW 28 33 15 18 1006.6 1005.9 0.0
17/06:30pm 32.0 26.5 10.7 27 12.4 SW 30 37 16 20 1006.7 1006.0 0.0
17/06:00pm 31.5 26.3 10.2 27 12.3 WSW 28 39 15 21 1006.7 1006.0 0.0
17/05:30pm 32.1 26.3 10.8 27 12.4 WSW 32 37 17 20 1006.7 1006.0 0.0
17/05:00pm 32.7 26.7 10.1 25 13.1 WSW 32 41 17 22 1006.7 1006.0 0.0
17/04:30pm 34.8 30.1 11.9 25 13.7 WSW 28 37 15 20 1006.7 1006.0 0.0
17/04:00pm 34.3 29.6 10.8 24 13.8 WSW 26 35 14 19 1006.9 1006.2 0.0
17/03:30pm 35.0 31.3 11.4 24 14.0 WSW 22 32 12 17 1006.9 1006.2 0.0
17/03:00pm 35.1 32.3 11.5 24 14.1 WNW 17 30 9 16 1007.5 1006.8 0.0
17/02:30pm 33.9 30.6 11.7 26 13.2 WSW 20 32 11 17 1008.1 1007.4 0.0
17/02:00pm 34.0 31.1 12.4 27 13.0 WSW 19 28 10 15 1008.4 1007.7 0.0
17/01:30pm 33.3 30.2 12.3 28 12.6 SSW 20 28 11 15 1008.6 1007.9 0.0
17/01:00pm 32.1 29.2 12.3 29 11.8 SW 19 32 10 17 1009.0 1008.3 0.0
17/12:30pm 30.2 27.5 11.7 32 10.8 SSW 17 22 9 12 1009.2 1008.5 0.0
17/12:00pm 29.3 26.9 11.4 33 10.4 SSW 15 20 8 11 1009.8 1009.1 0.0
17/11:30am 28.9 25.2 11.5 34 10.1 SW 22 33 12 18 1009.6 1008.9 0.0
17/11:00am 28.1 24.4 11.6 36 9.6 SW 22 28 12 15 1009.9 1009.2 0.0
17/10:30am 27.3 23.7 11.7 37 9.0 SW 22 26 12 14 1009.5 1008.8 0.0

Other Formats:

Comma delimited format used in spreadsheet applications
http://www.bom.gov.au/fwo/IDN60801/IDN60801.95704.axf

JavaScript Object Notation format (JSON) in row-major order
http://www.bom.gov.au/fwo/IDN60801/IDN60801.95704.json